sensor_id;sensor_type;location;lat;lon;timestamp;temperature;humidity
7384;DHT22;3733;47.994;8.820;2022-07-10T00:01:48;16.30;94.20
7384;DHT22;3733;47.994;8.820;2022-07-10T00:04:13;16.30;94.00
7384;DHT22;3733;47.994;8.820;2022-07-10T00:06:39;16.30;93.80
7384;DHT22;3733;47.994;8.820;2022-07-10T00:09:07;16.30;93.90
7384;DHT22;3733;47.994;8.820;2022-07-10T00:11:33;16.30;94.40
7384;DHT22;3733;47.994;8.820;2022-07-10T00:13:59;16.30;94.10
7384;DHT22;3733;47.994;8.820;2022-07-10T00:16:24;16.30;93.80
7384;DHT22;3733;47.994;8.820;2022-07-10T00:18:50;16.30;94.10
7384;DHT22;3733;47.994;8.820;2022-07-10T00:21:16;16.30;94.70
7384;DHT22;3733;47.994;8.820;2022-07-10T00:23:42;16.30;94.30
7384;DHT22;3733;47.994;8.820;2022-07-10T00:26:08;16.30;93.60
7384;DHT22;3733;47.994;8.820;2022-07-10T00:28:34;16.30;93.40
7384;DHT22;3733;47.994;8.820;2022-07-10T00:31:00;16.30;93.20
7384;DHT22;3733;47.994;8.820;2022-07-10T00:33:26;16.20;93.10
7384;DHT22;3733;47.994;8.820;2022-07-10T00:35:53;16.20;93.50
7384;DHT22;3733;47.994;8.820;2022-07-10T00:38:19;16.10;93.30
7384;DHT22;3733;47.994;8.820;2022-07-10T00:40:44;16.10;93.60
7384;DHT22;3733;47.994;8.820;2022-07-10T00:43:10;16.10;93.80
7384;DHT22;3733;47.994;8.820;2022-07-10T00:45:36;16.10;94.20
7384;DHT22;3733;47.994;8.820;2022-07-10T00:48:02;16.10;94.50
7384;DHT22;3733;47.994;8.820;2022-07-10T00:50:28;16.10;94.90
7384;DHT22;3733;47.994;8.820;2022-07-10T00:52:54;16.00;95.40
7384;DHT22;3733;47.994;8.820;2022-07-10T00:55:21;16.00;95.70
7384;DHT22;3733;47.994;8.820;2022-07-10T00:57:48;16.00;96.00
7384;DHT22;3733;47.994;8.820;2022-07-10T01:00:14;15.90;96.10
7384;DHT22;3733;47.994;8.820;2022-07-10T01:02:42;15.90;96.70
7384;DHT22;3733;47.994;8.820;2022-07-10T01:05:09;15.80;97.40
7384;DHT22;3733;47.994;8.820;2022-07-10T01:07:34;15.80;97.70
7384;DHT22;3733;47.994;8.820;2022-07-10T01:10:00;15.80;97.90
7384;DHT22;3733;47.994;8.820;2022-07-10T01:12:27;15.80;98.10
7384;DHT22;3733;47.994;8.820;2022-07-10T01:14:54;15.80;98.20
7384;DHT22;3733;47.994;8.820;2022-07-10T01:17:20;15.70;98.90
7384;DHT22;3733;47.994;8.820;2022-07-10T01:19:46;15.70;99.30
7384;DHT22;3733;47.994;8.820;2022-07-10T01:22:12;15.70;99.60
7384;DHT22;3733;47.994;8.820;2022-07-10T01:24:37;15.70;99.50
7384;DHT22;3733;47.994;8.820;2022-07-10T01:27:03;15.70;99.60
7384;DHT22;3733;47.994;8.820;2022-07-10T01:29:29;15.60;99.80
7384;DHT22;3733;47.994;8.820;2022-07-10T01:31:55;15.60;99.90
7384;DHT22;3733;47.994;8.820;2022-07-10T01:34:21;15.60;99.90
7384;DHT22;3733;47.994;8.820;2022-07-10T01:36:46;15.60;99.90
7384;DHT22;3733;47.994;8.820;2022-07-10T01:39:13;15.60;99.90
7384;DHT22;3733;47.994;8.820;2022-07-10T01:41:38;15.60;99.90
7384;DHT22;3733;47.994;8.820;2022-07-10T01:44:04;15.60;99.90
7384;DHT22;3733;47.994;8.820;2022-07-10T01:46:30;15.60;99.90
7384;DHT22;3733;47.994;8.820;2022-07-10T01:48:56;15.70;99.90
7384;DHT22;3733;47.994;8.820;2022-07-10T01:51:22;15.70;99.90
7384;DHT22;3733;47.994;8.820;2022-07-10T01:53:48;15.70;99.90
7384;DHT22;3733;47.994;8.820;2022-07-10T01:56:14;15.60;99.90
7384;DHT22;3733;47.994;8.820;2022-07-10T01:58:40;15.60;99.90
7384;DHT22;3733;47.994;8.820;2022-07-10T02:01:07;15.60;99.90
7384;DHT22;3733;47.994;8.820;2022-07-10T02:03:32;15.60;99.90
7384;DHT22;3733;47.994;8.820;2022-07-10T02:06:17;15.60;99.90
7384;DHT22;3733;47.994;8.820;2022-07-10T02:08:43;15.60;99.90
7384;DHT22;3733;47.994;8.820;2022-07-10T02:11:09;15.60;99.90
7384;DHT22;3733;47.994;8.820;2022-07-10T02:13:35;15.60;99.90
7384;DHT22;3733;47.994;8.820;2022-07-10T02:16:01;15.60;99.90
7384;DHT22;3733;47.994;8.820;2022-07-10T02:18:26;15.60;99.90
7384;DHT22;3733;47.994;8.820;2022-07-10T02:20:52;15.70;99.90
7384;DHT22;3733;47.994;8.820;2022-07-10T02:23:18;15.70;99.90
7384;DHT22;3733;47.994;8.820;2022-07-10T02:25:44;15.70;99.90
7384;DHT22;3733;47.994;8.820;2022-07-10T02:28:10;15.70;99.90
7384;DHT22;3733;47.994;8.820;2022-07-10T02:30:36;15.70;99.90
7384;DHT22;3733;47.994;8.820;2022-07-10T02:33:02;15.60;99.90
7384;DHT22;3733;47.994;8.820;2022-07-10T02:35:28;15.60;99.90
7384;DHT22;3733;47.994;8.820;2022-07-10T02:37:54;15.50;99.90
7384;DHT22;3733;47.994;8.820;2022-07-10T02:40:20;15.50;99.90
7384;DHT22;3733;47.994;8.820;2022-07-10T02:42:45;15.50;99.90
7384;DHT22;3733;47.994;8.820;2022-07-10T02:45:11;15.40;99.90
7384;DHT22;3733;47.994;8.820;2022-07-10T02:47:36;15.40;99.90
7384;DHT22;3733;47.994;8.820;2022-07-10T02:50:03;15.40;99.90
7384;DHT22;3733;47.994;8.820;2022-07-10T02:52:28;15.40;99.90
7384;DHT22;3733;47.994;8.820;2022-07-10T02:54:56;15.30;99.90
7384;DHT22;3733;47.994;8.820;2022-07-10T02:57:22;15.30;99.90
7384;DHT22;3733;47.994;8.820;2022-07-10T02:59:47;15.30;99.90
7384;DHT22;3733;47.994;8.820;2022-07-10T03:02:13;15.20;99.90
7384;DHT22;3733;47.994;8.820;2022-07-10T03:04:39;15.20;99.90
7384;DHT22;3733;47.994;8.820;2022-07-10T03:07:04;15.20;99.90
7384;DHT22;3733;47.994;8.820;2022-07-10T03:09:30;15.10;99.90
7384;DHT22;3733;47.994;8.820;2022-07-10T03:11:56;15.10;99.90
7384;DHT22;3733;47.994;8.820;2022-07-10T03:14:21;15.10;99.90
7384;DHT22;3733;47.994;8.820;2022-07-10T03:16:47;15.00;99.90
7384;DHT22;3733;47.994;8.820;2022-07-10T03:19:13;15.00;99.90
7384;DHT22;3733;47.994;8.820;2022-07-10T03:21:38;15.00;99.90
7384;DHT22;3733;47.994;8.820;2022-07-10T03:24:04;14.90;99.90
7384;DHT22;3733;47.994;8.820;2022-07-10T03:26:30;14.90;99.90
7384;DHT22;3733;47.994;8.820;2022-07-10T03:28:56;14.90;99.90
7384;DHT22;3733;47.994;8.820;2022-07-10T03:31:22;14.80;99.90
7384;DHT22;3733;47.994;8.820;2022-07-10T03:33:48;14.80;99.90
7384;DHT22;3733;47.994;8.820;2022-07-10T03:36:14;14.80;99.90
7384;DHT22;3733;47.994;8.820;2022-07-10T03:38:40;14.80;99.90
7384;DHT22;3733;47.994;8.820;2022-07-10T03:41:05;14.80;99.90
7384;DHT22;3733;47.994;8.820;2022-07-10T03:43:31;14.80;99.90
7384;DHT22;3733;47.994;8.820;2022-07-10T03:45:58;14.80;99.90
7384;DHT22;3733;47.994;8.820;2022-07-10T03:48:24;14.80;99.90
7384;DHT22;3733;47.994;8.820;2022-07-10T03:50:50;14.70;99.90
7384;DHT22;3733;47.994;8.820;2022-07-10T03:53:17;14.70;99.90
7384;DHT22;3733;47.994;8.820;2022-07-10T03:55:42;14.70;99.90
7384;DHT22;3733;47.994;8.820;2022-07-10T03:58:08;14.70;99.90
7384;DHT22;3733;47.994;8.820;2022-07-10T04:00:34;14.80;99.90
7384;DHT22;3733;47.994;8.820;2022-07-10T04:03:04;14.80;99.90
7384;DHT22;3733;47.994;8.820;2022-07-10T04:05:31;14.80;99.90
7384;DHT22;3733;47.994;8.820;2022-07-10T04:07:58;14.80;99.90
7384;DHT22;3733;47.994;8.820;2022-07-10T04:10:25;14.70;99.90
7384;DHT22;3733;47.994;8.820;2022-07-10T04:12:51;14.70;99.90
7384;DHT22;3733;47.994;8.820;2022-07-10T04:15:17;14.70;99.90
7384;DHT22;3733;47.994;8.820;2022-07-10T04:17:43;14.70;99.90
7384;DHT22;3733;47.994;8.820;2022-07-10T04:20:10;14.70;99.90
7384;DHT22;3733;47.994;8.820;2022-07-10T04:22:35;14.70;99.90
7384;DHT22;3733;47.994;8.820;2022-07-10T04:25:01;14.70;99.90
7384;DHT22;3733;47.994;8.820;2022-07-10T04:27:28;14.70;99.90
7384;DHT22;3733;47.994;8.820;2022-07-10T04:29:54;14.70;99.90
7384;DHT22;3733;47.994;8.820;2022-07-10T04:32:19;14.70;99.90
7384;DHT22;3733;47.994;8.820;2022-07-10T04:34:45;14.70;99.90
7384;DHT22;3733;47.994;8.820;2022-07-10T04:37:11;14.70;99.90
7384;DHT22;3733;47.994;8.820;2022-07-10T04:39:37;14.80;99.90
7384;DHT22;3733;47.994;8.820;2022-07-10T04:42:08;14.80;99.90
7384;DHT22;3733;47.994;8.820;2022-07-10T04:44:35;14.80;99.90
7384;DHT22;3733;47.994;8.820;2022-07-10T04:47:01;14.90;99.90
7384;DHT22;3733;47.994;8.820;2022-07-10T04:49:27;15.00;99.90
7384;DHT22;3733;47.994;8.820;2022-07-10T04:51:52;15.00;99.90
7384;DHT22;3733;47.994;8.820;2022-07-10T04:54:18;15.10;99.90
7384;DHT22;3733;47.994;8.820;2022-07-10T04:56:44;15.10;99.90
7384;DHT22;3733;47.994;8.820;2022-07-10T04:59:10;15.10;99.90
7384;DHT22;3733;47.994;8.820;2022-07-10T05:01:36;15.10;99.90
7384;DHT22;3733;47.994;8.820;2022-07-10T05:04:03;15.20;99.90
7384;DHT22;3733;47.994;8.820;2022-07-10T05:06:29;15.10;99.90
7384;DHT22;3733;47.994;8.820;2022-07-10T05:08:54;15.20;99.90
7384;DHT22;3733;47.994;8.820;2022-07-10T05:11:21;15.30;99.90
7384;DHT22;3733;47.994;8.820;2022-07-10T05:13:47;15.30;99.90
7384;DHT22;3733;47.994;8.820;2022-07-10T05:16:14;15.30;99.90
7384;DHT22;3733;47.994;8.820;2022-07-10T05:18:40;15.40;99.90
7384;DHT22;3733;47.994;8.820;2022-07-10T05:21:07;15.50;99.90
7384;DHT22;3733;47.994;8.820;2022-07-10T05:23:33;15.50;99.90
7384;DHT22;3733;47.994;8.820;2022-07-10T05:25:59;15.50;99.90
7384;DHT22;3733;47.994;8.820;2022-07-10T05:28:24;15.60;99.90
7384;DHT22;3733;47.994;8.820;2022-07-10T05:30:51;15.60;99.90
7384;DHT22;3733;47.994;8.820;2022-07-10T05:33:17;15.70;99.90
7384;DHT22;3733;47.994;8.820;2022-07-10T05:35:43;15.70;99.90
7384;DHT22;3733;47.994;8.820;2022-07-10T05:38:08;15.80;99.90
7384;DHT22;3733;47.994;8.820;2022-07-10T05:40:34;15.80;99.90
7384;DHT22;3733;47.994;8.820;2022-07-10T05:42:59;15.90;99.90
7384;DHT22;3733;47.994;8.820;2022-07-10T05:45:25;15.90;99.90
7384;DHT22;3733;47.994;8.820;2022-07-10T05:47:51;15.90;99.90
7384;DHT22;3733;47.994;8.820;2022-07-10T05:50:17;16.00;99.90
7384;DHT22;3733;47.994;8.820;2022-07-10T05:52:43;16.00;99.90
7384;DHT22;3733;47.994;8.820;2022-07-10T05:55:08;16.10;99.90
7384;DHT22;3733;47.994;8.820;2022-07-10T05:57:34;16.10;99.90
7384;DHT22;3733;47.994;8.820;2022-07-10T06:00:00;16.20;99.20
7384;DHT22;3733;47.994;8.820;2022-07-10T06:02:26;16.20;98.70
7384;DHT22;3733;47.994;8.820;2022-07-10T06:04:52;16.30;99.00
7384;DHT22;3733;47.994;8.820;2022-07-10T06:07:18;16.30;98.90
7384;DHT22;3733;47.994;8.820;2022-07-10T06:09:43;16.30;97.90
7384;DHT22;3733;47.994;8.820;2022-07-10T06:12:09;16.40;97.40
7384;DHT22;3733;47.994;8.820;2022-07-10T06:14:35;16.40;96.50
7384;DHT22;3733;47.994;8.820;2022-07-10T06:17:01;16.40;96.60
7384;DHT22;3733;47.994;8.820;2022-07-10T06:19:27;16.40;96.60
7384;DHT22;3733;47.994;8.820;2022-07-10T06:21:52;16.40;96.30
7384;DHT22;3733;47.994;8.820;2022-07-10T06:24:38;16.40;96.40
7384;DHT22;3733;47.994;8.820;2022-07-10T06:27:05;16.40;97.00
7384;DHT22;3733;47.994;8.820;2022-07-10T06:29:30;16.40;96.30
7384;DHT22;3733;47.994;8.820;2022-07-10T06:31:56;16.40;96.50
7384;DHT22;3733;47.994;8.820;2022-07-10T06:34:22;16.40;96.60
7384;DHT22;3733;47.994;8.820;2022-07-10T06:36:48;16.40;95.90
7384;DHT22;3733;47.994;8.820;2022-07-10T06:39:13;16.40;95.90
7384;DHT22;3733;47.994;8.820;2022-07-10T06:41:39;16.40;96.00
7384;DHT22;3733;47.994;8.820;2022-07-10T06:44:05;16.50;95.60
7384;DHT22;3733;47.994;8.820;2022-07-10T06:46:31;16.50;95.10
7384;DHT22;3733;47.994;8.820;2022-07-10T06:48:58;16.50;95.50
7384;DHT22;3733;47.994;8.820;2022-07-10T06:51:24;16.50;95.20
7384;DHT22;3733;47.994;8.820;2022-07-10T06:53:50;16.50;95.90
7384;DHT22;3733;47.994;8.820;2022-07-10T06:56:15;16.50;95.60
7384;DHT22;3733;47.994;8.820;2022-07-10T06:58:41;16.50;95.90
7384;DHT22;3733;47.994;8.820;2022-07-10T07:01:07;16.50;96.00
7384;DHT22;3733;47.994;8.820;2022-07-10T07:03:33;16.50;96.00
7384;DHT22;3733;47.994;8.820;2022-07-10T07:05:59;16.50;96.00
7384;DHT22;3733;47.994;8.820;2022-07-10T07:08:24;16.50;96.50
7384;DHT22;3733;47.994;8.820;2022-07-10T07:10:50;16.60;96.80
7384;DHT22;3733;47.994;8.820;2022-07-10T07:13:17;16.60;98.10
7384;DHT22;3733;47.994;8.820;2022-07-10T07:15:42;16.70;95.60
7384;DHT22;3733;47.994;8.820;2022-07-10T07:18:13;16.70;95.60
7384;DHT22;3733;47.994;8.820;2022-07-10T07:20:41;16.80;95.50
7384;DHT22;3733;47.994;8.820;2022-07-10T07:23:26;16.90;94.30
7384;DHT22;3733;47.994;8.820;2022-07-10T07:25:52;17.00;93.00
7384;DHT22;3733;47.994;8.820;2022-07-10T07:28:19;17.00;93.40
7384;DHT22;3733;47.994;8.820;2022-07-10T07:30:46;17.10;92.10
7384;DHT22;3733;47.994;8.820;2022-07-10T07:33:12;17.20;90.60
7384;DHT22;3733;47.994;8.820;2022-07-10T07:35:38;17.20;89.60
7384;DHT22;3733;47.994;8.820;2022-07-10T07:38:04;17.20;90.30
7384;DHT22;3733;47.994;8.820;2022-07-10T07:40:31;17.20;90.40
7384;DHT22;3733;47.994;8.820;2022-07-10T07:42:57;17.10;91.00
7384;DHT22;3733;47.994;8.820;2022-07-10T07:45:24;17.10;91.40
7384;DHT22;3733;47.994;8.820;2022-07-10T07:47:50;17.10;91.20
7384;DHT22;3733;47.994;8.820;2022-07-10T07:50:20;17.10;91.60
7384;DHT22;3733;47.994;8.820;2022-07-10T07:52:47;17.10;92.30
7384;DHT22;3733;47.994;8.820;2022-07-10T07:55:14;17.30;91.90
7384;DHT22;3733;47.994;8.820;2022-07-10T07:57:41;17.40;90.30
7384;DHT22;3733;47.994;8.820;2022-07-10T08:00:08;17.40;89.60
7384;DHT22;3733;47.994;8.820;2022-07-10T08:02:34;17.50;87.80
7384;DHT22;3733;47.994;8.820;2022-07-10T08:05:00;17.40;86.40
7384;DHT22;3733;47.994;8.820;2022-07-10T08:07:40;17.40;85.40
7384;DHT22;3733;47.994;8.820;2022-07-10T08:10:15;17.40;90.10
7384;DHT22;3733;47.994;8.820;2022-07-10T08:12:42;17.60;91.30
7384;DHT22;3733;47.994;8.820;2022-07-10T08:15:09;17.90;89.30
7384;DHT22;3733;47.994;8.820;2022-07-10T08:17:36;18.20;85.60
7384;DHT22;3733;47.994;8.820;2022-07-10T08:20:03;18.40;78.90
7384;DHT22;3733;47.994;8.820;2022-07-10T08:22:29;18.60;74.10
7384;DHT22;3733;47.994;8.820;2022-07-10T08:24:54;18.80;71.30
7384;DHT22;3733;47.994;8.820;2022-07-10T08:27:22;18.90;71.90
7384;DHT22;3733;47.994;8.820;2022-07-10T08:29:47;18.90;71.60
7384;DHT22;3733;47.994;8.820;2022-07-10T08:32:13;18.80;70.40
7384;DHT22;3733;47.994;8.820;2022-07-10T08:34:39;18.80;69.80
7384;DHT22;3733;47.994;8.820;2022-07-10T08:37:04;18.90;69.20
7384;DHT22;3733;47.994;8.820;2022-07-10T08:39:30;19.00;68.80
7384;DHT22;3733;47.994;8.820;2022-07-10T08:41:57;19.20;68.60
7384;DHT22;3733;47.994;8.820;2022-07-10T08:44:23;19.40;66.90
7384;DHT22;3733;47.994;8.820;2022-07-10T08:46:49;19.50;64.50
7384;DHT22;3733;47.994;8.820;2022-07-10T08:49:16;19.70;66.80
7384;DHT22;3733;47.994;8.820;2022-07-10T08:51:52;19.90;65.60
7384;DHT22;3733;47.994;8.820;2022-07-10T08:54:20;20.10;63.10
7384;DHT22;3733;47.994;8.820;2022-07-10T08:56:47;20.20;61.50
7384;DHT22;3733;47.994;8.820;2022-07-10T08:59:14;20.30;61.10
7384;DHT22;3733;47.994;8.820;2022-07-10T09:01:40;20.40;59.90
7384;DHT22;3733;47.994;8.820;2022-07-10T09:04:06;20.40;59.20
7384;DHT22;3733;47.994;8.820;2022-07-10T09:06:31;20.50;59.20
7384;DHT22;3733;47.994;8.820;2022-07-10T09:11:27;20.60;58.10
7384;DHT22;3733;47.994;8.820;2022-07-10T09:14:03;20.60;56.10
7384;DHT22;3733;47.994;8.820;2022-07-10T09:16:34;20.40;54.50
7384;DHT22;3733;47.994;8.820;2022-07-10T09:19:19;20.30;55.00
7384;DHT22;3733;47.994;8.820;2022-07-10T09:22:00;20.30;57.60
7384;DHT22;3733;47.994;8.820;2022-07-10T09:24:42;20.50;58.10
7384;DHT22;3733;47.994;8.820;2022-07-10T09:27:09;20.60;55.90
7384;DHT22;3733;47.994;8.820;2022-07-10T09:29:49;20.50;53.80
7384;DHT22;3733;47.994;8.820;2022-07-10T09:32:20;20.40;54.50
7384;DHT22;3733;47.994;8.820;2022-07-10T09:34:47;20.40;55.60
7384;DHT22;3733;47.994;8.820;2022-07-10T09:37:22;20.40;56.70
7384;DHT22;3733;47.994;8.820;2022-07-10T09:39:56;20.40;57.70
7384;DHT22;3733;47.994;8.820;2022-07-10T09:42:29;20.30;55.50
7384;DHT22;3733;47.994;8.820;2022-07-10T09:47:40;19.90;53.70
7384;DHT22;3733;47.994;8.820;2022-07-10T09:52:57;20.20;55.30
7384;DHT22;3733;47.994;8.820;2022-07-10T09:55:26;20.50;56.90
7384;DHT22;3733;47.994;8.820;2022-07-10T10:00:32;20.70;55.40
7384;DHT22;3733;47.994;8.820;2022-07-10T10:03:00;20.90;54.90
7384;DHT22;3733;47.994;8.820;2022-07-10T10:07:56;21.10;55.20
7384;DHT22;3733;47.994;8.820;2022-07-10T10:10:24;21.10;55.80
7384;DHT22;3733;47.994;8.820;2022-07-10T10:12:54;21.20;55.50
7384;DHT22;3733;47.994;8.820;2022-07-10T10:15:23;21.20;55.80
7384;DHT22;3733;47.994;8.820;2022-07-10T10:17:50;21.20;56.60
7384;DHT22;3733;47.994;8.820;2022-07-10T10:20:17;21.10;55.80
7384;DHT22;3733;47.994;8.820;2022-07-10T10:23:04;20.90;56.10
7384;DHT22;3733;47.994;8.820;2022-07-10T10:25:32;20.80;56.40
7384;DHT22;3733;47.994;8.820;2022-07-10T10:28:00;20.80;56.00
7384;DHT22;3733;47.994;8.820;2022-07-10T10:30:26;21.10;56.10
7384;DHT22;3733;47.994;8.820;2022-07-10T10:32:52;21.40;56.20
7384;DHT22;3733;47.994;8.820;2022-07-10T10:35:44;21.60;55.10
7384;DHT22;3733;47.994;8.820;2022-07-10T10:38:13;21.50;53.70
7384;DHT22;3733;47.994;8.820;2022-07-10T10:40:39;21.30;54.10
7384;DHT22;3733;47.994;8.820;2022-07-10T10:43:22;21.50;55.50
7384;DHT22;3733;47.994;8.820;2022-07-10T10:45:49;21.80;54.70
7384;DHT22;3733;47.994;8.820;2022-07-10T10:48:16;22.10;55.00
7384;DHT22;3733;47.994;8.820;2022-07-10T10:50:52;22.20;53.80
7384;DHT22;3733;47.994;8.820;2022-07-10T10:58:41;21.40;54.30
7384;DHT22;3733;47.994;8.820;2022-07-10T11:12:01;23.00;52.60
7384;DHT22;3733;47.994;8.820;2022-07-10T11:14:28;23.10;53.10
7384;DHT22;3733;47.994;8.820;2022-07-10T11:16:55;23.20;52.40
7384;DHT22;3733;47.994;8.820;2022-07-10T11:19:25;23.20;51.50
7384;DHT22;3733;47.994;8.820;2022-07-10T11:30:23;23.60;53.20
7384;DHT22;3733;47.994;8.820;2022-07-10T11:32:48;23.90;51.90
7384;DHT22;3733;47.994;8.820;2022-07-10T11:35:16;24.00;51.70
7384;DHT22;3733;47.994;8.820;2022-07-10T11:37:53;24.00;51.30
7384;DHT22;3733;47.994;8.820;2022-07-10T11:40:20;23.90;51.60
7384;DHT22;3733;47.994;8.820;2022-07-10T11:42:50;24.10;52.10
7384;DHT22;3733;47.994;8.820;2022-07-10T11:45:29;24.10;49.80
7384;DHT22;3733;47.994;8.820;2022-07-10T11:47:55;24.00;50.30
7384;DHT22;3733;47.994;8.820;2022-07-10T11:50:22;24.10;50.40
7384;DHT22;3733;47.994;8.820;2022-07-10T11:52:48;24.10;48.20
7384;DHT22;3733;47.994;8.820;2022-07-10T11:55:18;23.90;48.10
7384;DHT22;3733;47.994;8.820;2022-07-10T11:57:45;23.70;49.70
7384;DHT22;3733;47.994;8.820;2022-07-10T12:00:30;23.40;49.10
7384;DHT22;3733;47.994;8.820;2022-07-10T12:02:56;23.10;49.70
7384;DHT22;3733;47.994;8.820;2022-07-10T12:05:36;23.30;51.40
7384;DHT22;3733;47.994;8.820;2022-07-10T12:08:02;23.70;51.80
7384;DHT22;3733;47.994;8.820;2022-07-10T12:10:29;24.00;51.70
7384;DHT22;3733;47.994;8.820;2022-07-10T12:13:12;24.40;50.60
7384;DHT22;3733;47.994;8.820;2022-07-10T12:18:07;24.80;49.30
7384;DHT22;3733;47.994;8.820;2022-07-10T12:20:34;24.60;47.30
7384;DHT22;3733;47.994;8.820;2022-07-10T12:23:00;24.30;47.70
7384;DHT22;3733;47.994;8.820;2022-07-10T12:25:26;24.20;48.80
7384;DHT22;3733;47.994;8.820;2022-07-10T12:27:56;24.30;49.30
7384;DHT22;3733;47.994;8.820;2022-07-10T12:30:23;24.30;49.10
7384;DHT22;3733;47.994;8.820;2022-07-10T12:32:49;24.20;48.20
7384;DHT22;3733;47.994;8.820;2022-07-10T12:35:14;24.10;48.70
7384;DHT22;3733;47.994;8.820;2022-07-10T12:37:50;24.30;49.90
7384;DHT22;3733;47.994;8.820;2022-07-10T12:40:34;24.70;50.50
7384;DHT22;3733;47.994;8.820;2022-07-10T12:43:03;25.00;49.30
7384;DHT22;3733;47.994;8.820;2022-07-10T12:45:29;25.30;49.30
7384;DHT22;3733;47.994;8.820;2022-07-10T12:47:55;25.60;49.00
7384;DHT22;3733;47.994;8.820;2022-07-10T12:50:20;25.80;48.50
7384;DHT22;3733;47.994;8.820;2022-07-10T12:52:48;26.10;47.70
7384;DHT22;3733;47.994;8.820;2022-07-10T12:55:18;26.10;45.70
7384;DHT22;3733;47.994;8.820;2022-07-10T12:57:57;25.70;44.80
7384;DHT22;3733;47.994;8.820;2022-07-10T13:05:31;25.80;46.20
7384;DHT22;3733;47.994;8.820;2022-07-10T13:08:11;25.90;44.00
7384;DHT22;3733;47.994;8.820;2022-07-10T13:10:58;26.00;45.00
7384;DHT22;3733;47.994;8.820;2022-07-10T13:13:27;26.20;46.00
7384;DHT22;3733;47.994;8.820;2022-07-10T13:15:54;26.30;43.10
7384;DHT22;3733;47.994;8.820;2022-07-10T13:18:21;26.40;44.00
7384;DHT22;3733;47.994;8.820;2022-07-10T13:20:49;26.60;45.00
7384;DHT22;3733;47.994;8.820;2022-07-10T13:23:15;26.70;43.80
7384;DHT22;3733;47.994;8.820;2022-07-10T13:25:42;26.60;43.80
7384;DHT22;3733;47.994;8.820;2022-07-10T13:28:09;26.20;44.20
7384;DHT22;3733;47.994;8.820;2022-07-10T13:30:35;25.70;44.60
7384;DHT22;3733;47.994;8.820;2022-07-10T13:33:01;25.40;44.90
7384;DHT22;3733;47.994;8.820;2022-07-10T13:35:31;25.10;44.80
7384;DHT22;3733;47.994;8.820;2022-07-10T13:37:59;24.80;45.10
7384;DHT22;3733;47.994;8.820;2022-07-10T13:40:29;25.00;46.40
7384;DHT22;3733;47.994;8.820;2022-07-10T13:42:56;25.20;46.60
7384;DHT22;3733;47.994;8.820;2022-07-10T13:45:22;25.70;47.20
7384;DHT22;3733;47.994;8.820;2022-07-10T13:47:48;26.20;45.50
7384;DHT22;3733;47.994;8.820;2022-07-10T13:50:14;26.50;45.20
7384;DHT22;3733;47.994;8.820;2022-07-10T13:52:40;26.80;44.20
7384;DHT22;3733;47.994;8.820;2022-07-10T13:55:05;27.00;44.00
7384;DHT22;3733;47.994;8.820;2022-07-10T13:57:35;27.00;42.90
7384;DHT22;3733;47.994;8.820;2022-07-10T14:00:00;26.80;43.10
7384;DHT22;3733;47.994;8.820;2022-07-10T14:02:26;26.70;43.10
7384;DHT22;3733;47.994;8.820;2022-07-10T14:04:52;26.80;42.00
7384;DHT22;3733;47.994;8.820;2022-07-10T14:07:17;27.00;42.80
7384;DHT22;3733;47.994;8.820;2022-07-10T14:09:43;26.90;42.90
7384;DHT22;3733;47.994;8.820;2022-07-10T14:12:09;26.80;42.70
7384;DHT22;3733;47.994;8.820;2022-07-10T14:14:34;27.00;43.20
7384;DHT22;3733;47.994;8.820;2022-07-10T14:17:00;27.20;44.40
7384;DHT22;3733;47.994;8.820;2022-07-10T14:19:26;27.50;42.90
7384;DHT22;3733;47.994;8.820;2022-07-10T14:21:51;27.10;42.50
7384;DHT22;3733;47.994;8.820;2022-07-10T14:24:17;26.70;43.40
7384;DHT22;3733;47.994;8.820;2022-07-10T14:26:43;26.70;44.20
7384;DHT22;3733;47.994;8.820;2022-07-10T14:29:08;26.90;44.60
7384;DHT22;3733;47.994;8.820;2022-07-10T14:31:34;27.20;44.40
7384;DHT22;3733;47.994;8.820;2022-07-10T14:34:00;27.50;43.80
7384;DHT22;3733;47.994;8.820;2022-07-10T14:36:25;27.70;43.70
7384;DHT22;3733;47.994;8.820;2022-07-10T14:38:54;27.90;43.80
7384;DHT22;3733;47.994;8.820;2022-07-10T14:41:22;27.90;42.80
7384;DHT22;3733;47.994;8.820;2022-07-10T14:43:47;28.10;42.90
7384;DHT22;3733;47.994;8.820;2022-07-10T14:46:13;28.20;42.10
7384;DHT22;3733;47.994;8.820;2022-07-10T14:48:39;28.30;41.50
7384;DHT22;3733;47.994;8.820;2022-07-10T14:51:04;28.40;41.70
7384;DHT22;3733;47.994;8.820;2022-07-10T14:53:30;28.50;41.70
7384;DHT22;3733;47.994;8.820;2022-07-10T14:56:01;28.60;41.40
7384;DHT22;3733;47.994;8.820;2022-07-10T14:58:26;28.70;39.90
7384;DHT22;3733;47.994;8.820;2022-07-10T15:00:52;28.70;40.40
7384;DHT22;3733;47.994;8.820;2022-07-10T15:03:19;28.60;39.40
7384;DHT22;3733;47.994;8.820;2022-07-10T15:05:44;28.50;40.70
7384;DHT22;3733;47.994;8.820;2022-07-10T15:08:10;28.50;40.30
7384;DHT22;3733;47.994;8.820;2022-07-10T15:10:35;28.50;41.10
7384;DHT22;3733;47.994;8.820;2022-07-10T15:13:01;28.40;40.30
7384;DHT22;3733;47.994;8.820;2022-07-10T15:15:31;28.50;40.80
7384;DHT22;3733;47.994;8.820;2022-07-10T15:17:57;28.50;40.90
7384;DHT22;3733;47.994;8.820;2022-07-10T15:20:22;28.50;40.80
7384;DHT22;3733;47.994;8.820;2022-07-10T15:22:48;28.60;41.20
7384;DHT22;3733;47.994;8.820;2022-07-10T15:25:14;28.70;41.10
7384;DHT22;3733;47.994;8.820;2022-07-10T15:27:40;28.70;40.30
7384;DHT22;3733;47.994;8.820;2022-07-10T15:30:08;28.70;40.00
7384;DHT22;3733;47.994;8.820;2022-07-10T15:32:36;28.70;39.50
7384;DHT22;3733;47.994;8.820;2022-07-10T15:35:02;28.50;39.30
7384;DHT22;3733;47.994;8.820;2022-07-10T15:37:28;28.50;39.10
7384;DHT22;3733;47.994;8.820;2022-07-10T15:39:54;28.40;39.70
7384;DHT22;3733;47.994;8.820;2022-07-10T15:42:20;28.40;39.10
7384;DHT22;3733;47.994;8.820;2022-07-10T15:44:45;28.30;38.90
7384;DHT22;3733;47.994;8.820;2022-07-10T15:47:11;28.30;38.50
7384;DHT22;3733;47.994;8.820;2022-07-10T15:49:37;28.40;38.80
7384;DHT22;3733;47.994;8.820;2022-07-10T15:52:03;28.40;38.40
7384;DHT22;3733;47.994;8.820;2022-07-10T15:54:29;28.40;38.30
7384;DHT22;3733;47.994;8.820;2022-07-10T15:56:55;28.30;38.10
7384;DHT22;3733;47.994;8.820;2022-07-10T15:59:21;28.30;37.70
7384;DHT22;3733;47.994;8.820;2022-07-10T16:01:54;28.20;38.10
7384;DHT22;3733;47.994;8.820;2022-07-10T16:04:21;28.10;38.30
7384;DHT22;3733;47.994;8.820;2022-07-10T16:06:47;28.10;38.10
7384;DHT22;3733;47.994;8.820;2022-07-10T16:09:13;28.10;38.20
7384;DHT22;3733;47.994;8.820;2022-07-10T16:11:39;28.00;37.10
7384;DHT22;3733;47.994;8.820;2022-07-10T16:14:07;28.10;37.60
7384;DHT22;3733;47.994;8.820;2022-07-10T16:16:32;28.10;36.90
7384;DHT22;3733;47.994;8.820;2022-07-10T16:18:58;27.90;37.00
7384;DHT22;3733;47.994;8.820;2022-07-10T16:21:24;27.90;36.60
7384;DHT22;3733;47.994;8.820;2022-07-10T16:23:50;27.80;36.50
7384;DHT22;3733;47.994;8.820;2022-07-10T16:26:17;27.80;36.50
7384;DHT22;3733;47.994;8.820;2022-07-10T16:28:42;27.70;36.60
7384;DHT22;3733;47.994;8.820;2022-07-10T16:31:08;27.50;36.00
7384;DHT22;3733;47.994;8.820;2022-07-10T16:33:35;27.30;36.10
7384;DHT22;3733;47.994;8.820;2022-07-10T16:36:01;27.20;36.20
7384;DHT22;3733;47.994;8.820;2022-07-10T16:38:27;27.10;36.30
7384;DHT22;3733;47.994;8.820;2022-07-10T16:40:52;27.00;36.10
7384;DHT22;3733;47.994;8.820;2022-07-10T16:43:18;26.90;36.60
7384;DHT22;3733;47.994;8.820;2022-07-10T16:45:44;27.00;36.00
7384;DHT22;3733;47.994;8.820;2022-07-10T16:48:11;27.00;35.60